Time;durP1;ratioP1;P1;durP2;ratioP2;P2;SDS_P1;SDS_P2;PMS_P1;PMS_P2;Temp;Humidity;BMP_temperature;BMP_pressure;BME280_temperature;BME280_humidity;BME280_pressure;Samples;Min_cycle;Max_cycle;Signal;HPM_P1;HPM_P2
2021/12/08 00:02:16;;;;;;;1.70;1.00;;;7.60;99.90;;;;;;4962613;28;20196;-72
2021/12/08 00:04:42;;;;;;;2.67;1.10;;;7.60;99.90;;;;;;4965602;28;20185;-73
2021/12/08 00:07:09;;;;;;;2.40;1.00;;;7.60;99.90;;;;;;4950674;29;20230;-72
2021/12/08 00:10:01;;;;;;;1.97;1.00;;;7.60;99.90;;;;;;4967169;28;20180;-72
2021/12/08 00:15:14;;;;;;;3.27;1.20;;;7.60;99.90;;;;;;4951468;29;20482;-73
2021/12/08 00:17:42;;;;;;;1.37;0.93;;;7.60;99.90;;;;;;4957364;28;20188;-69
2021/12/08 00:20:09;;;;;;;1.80;1.10;;;7.60;99.90;;;;;;4943556;29;20209;-71
2021/12/08 00:22:37;;;;;;;2.17;1.10;;;7.60;99.90;;;;;;4949528;29;20200;-71
2021/12/08 00:25:06;;;;;;;2.67;1.00;;;7.60;99.90;;;;;;4950506;29;20243;-70
2021/12/08 00:27:34;;;;;;;2.43;1.20;;;7.60;99.90;;;;;;4952492;29;20184;-70
2021/12/08 00:30:03;;;;;;;1.03;0.83;;;7.60;99.90;;;;;;4956226;28;20177;-72
2021/12/08 00:32:31;;;;;;;1.47;1.00;;;7.60;99.90;;;;;;4951233;28;20219;-72
2021/12/08 00:34:59;;;;;;;2.23;1.00;;;7.60;99.90;;;;;;4952085;29;20177;-72
2021/12/08 00:37:28;;;;;;;2.07;0.80;;;7.60;99.90;;;;;;4947079;29;20453;-72
2021/12/08 00:39:54;;;;;;;1.50;0.90;;;7.60;99.90;;;;;;4945911;29;20236;-72
2021/12/08 00:42:22;;;;;;;1.67;1.00;;;7.50;99.90;;;;;;4950304;29;20205;-71
2021/12/08 00:44:50;;;;;;;1.73;0.80;;;7.50;99.90;;;;;;4950671;29;20200;-72
2021/12/08 00:47:16;;;;;;;2.80;1.10;;;7.50;99.90;;;;;;4953681;28;20283;-72
2021/12/08 00:49:42;;;;;;;2.13;1.03;;;7.50;99.90;;;;;;4951429;28;20268;-72
2021/12/08 00:52:10;;;;;;;2.23;1.00;;;7.50;99.90;;;;;;4967163;28;20195;-72
2021/12/08 00:54:36;;;;;;;1.10;0.80;;;7.50;99.90;;;;;;4951575;28;20268;-73
2021/12/08 00:57:05;;;;;;;1.97;1.00;;;7.50;99.90;;;;;;4951945;29;20267;-71
2021/12/08 00:59:31;;;;;;;1.97;1.00;;;7.50;99.90;;;;;;4969736;28;20240;-71
2021/12/08 01:02:02;;;;;;;2.10;1.00;;;7.40;99.90;;;;;;4952494;28;20201;-72
2021/12/08 01:04:32;;;;;;;1.40;0.87;;;7.50;99.90;;;;;;4952374;28;20251;-72
2021/12/08 01:07:01;;;;;;;1.40;0.90;;;7.40;99.90;;;;;;4944633;29;20184;-71
2021/12/08 01:09:30;;;;;;;1.37;0.90;;;7.40;99.90;;;;;;4950493;28;20193;-73
2021/12/08 01:11:57;;;;;;;1.60;1.13;;;7.40;99.90;;;;;;4950479;29;20219;-73
2021/12/08 01:14:24;;;;;;;1.90;1.00;;;7.40;99.90;;;;;;4954073;28;20201;-72
2021/12/08 01:16:52;;;;;;;2.43;0.70;;;7.40;99.90;;;;;;4936193;29;20182;-73
2021/12/08 01:19:20;;;;;;;1.63;0.90;;;7.40;99.90;;;;;;4957968;28;20216;-72
2021/12/08 01:21:49;;;;;;;3.53;1.00;;;7.40;99.90;;;;;;4959767;28;20178;-73
2021/12/08 01:24:14;;;;;;;1.13;0.90;;;7.40;99.90;;;;;;4949857;28;20245;-72
2021/12/08 01:26:40;;;;;;;1.60;0.87;;;7.40;99.90;;;;;;4948323;29;20208;-72
2021/12/08 01:29:10;;;;;;;1.10;0.80;;;7.40;99.90;;;;;;4951518;28;20189;-73
2021/12/08 01:31:40;;;;;;;3.13;1.10;;;7.40;99.90;;;;;;4946992;29;20212;-71
2021/12/08 01:34:09;;;;;;;1.20;0.80;;;7.40;99.90;;;;;;4947011;28;20185;-71
2021/12/08 01:36:37;;;;;;;2.37;0.90;;;7.30;99.90;;;;;;4956320;28;20181;-71
2021/12/08 01:39:10;;;;;;;1.77;1.00;;;7.30;99.90;;;;;;4951737;29;20410;-72
2021/12/08 01:41:36;;;;;;;1.23;0.90;;;7.30;99.90;;;;;;4942512;28;20197;-73
2021/12/08 01:47:09;;;;;;;1.43;0.83;;;7.20;99.90;;;;;;5048091;28;20180;-72
2021/12/08 01:49:37;;;;;;;1.40;0.70;;;7.20;99.90;;;;;;4993990;28;20268;-71
2021/12/08 01:52:05;;;;;;;1.20;0.70;;;7.10;99.90;;;;;;4951309;28;20196;-72
2021/12/08 01:54:31;;;;;;;1.50;0.77;;;7.20;99.90;;;;;;4949550;28;20313;-70
2021/12/08 01:57:00;;;;;;;2.30;0.90;;;7.10;99.90;;;;;;4947729;29;20348;-72
2021/12/08 01:59:30;;;;;;;1.33;0.80;;;7.10;99.90;;;;;;4955120;28;20209;-72
2021/12/08 02:01:56;;;;;;;2.07;0.90;;;7.10;99.90;;;;;;4951498;28;20191;-72
2021/12/08 02:04:21;;;;;;;1.10;0.70;;;7.10;99.90;;;;;;4947973;29;20172;-73
2021/12/08 02:06:48;;;;;;;2.43;0.90;;;7.10;99.90;;;;;;4958659;28;20180;-71
2021/12/08 02:09:17;;;;;;;1.10;0.80;;;7.10;99.90;;;;;;4948143;28;20288;-72
2021/12/08 02:11:46;;;;;;;2.60;0.90;;;7.10;99.90;;;;;;4949386;29;20203;-71
2021/12/08 02:14:14;;;;;;;1.63;0.90;;;7.10;99.90;;;;;;4949808;29;20270;-72
2021/12/08 02:16:42;;;;;;;1.60;0.80;;;7.10;99.90;;;;;;4954645;28;20180;-71
2021/12/08 02:19:10;;;;;;;1.67;0.90;;;7.10;99.90;;;;;;4947275;28;20270;-72
2021/12/08 02:21:46;;;;;;;1.70;1.00;;;7.00;99.90;;;;;;4948773;28;20181;-65
2021/12/08 02:24:17;;;;;;;1.03;0.73;;;7.00;99.90;;;;;;4945747;28;20216;-64
2021/12/08 02:26:47;;;;;;;1.40;1.00;;;7.00;99.90;;;;;;4940847;28;20193;-65
2021/12/08 02:29:22;;;;;;;1.90;0.90;;;7.00;99.90;;;;;;4952371;28;20181;-65
2021/12/08 02:32:01;;;;;;;1.63;0.80;;;7.00;99.90;;;;;;4964362;28;20196;-65
2021/12/08 02:48:12;;;;;;;1.33;0.80;;;7.10;99.90;;;;;;4941497;29;20270;-65
2021/12/08 02:50:41;;;;;;;1.03;0.70;;;7.10;99.90;;;;;;4947758;29;20377;-65
2021/12/08 02:53:10;;;;;;;1.37;0.80;;;7.10;99.90;;;;;;4947087;28;20197;-65
2021/12/08 02:55:36;;;;;;;2.00;1.00;;;7.10;99.90;;;;;;4942176;28;20209;-65
2021/12/08 02:58:06;;;;;;;2.47;0.93;;;7.10;99.90;;;;;;4949588;29;20181;-66
2021/12/08 03:00:44;;;;;;;1.30;0.90;;;7.10;99.90;;;;;;4949448;29;20204;-65
2021/12/08 03:03:10;;;;;;;1.50;1.00;;;7.10;99.90;;;;;;4947994;28;20181;-65
2021/12/08 03:05:36;;;;;;;1.87;0.80;;;7.10;99.90;;;;;;4947736;28;20359;-65
2021/12/08 03:08:06;;;;;;;1.67;1.00;;;7.10;99.90;;;;;;4953614;28;20276;-64
2021/12/08 03:10:37;;;;;;;2.17;1.13;;;7.10;99.90;;;;;;4945614;28;20484;-65
2021/12/08 03:13:03;;;;;;;1.23;0.90;;;7.10;99.90;;;;;;4950743;29;20220;-65
2021/12/08 03:15:34;;;;;;;1.77;1.10;;;7.00;99.90;;;;;;4967460;28;20189;-65
2021/12/08 03:18:02;;;;;;;1.60;0.80;;;7.00;99.90;;;;;;4948886;29;20181;-65
2021/12/08 03:20:41;;;;;;;1.87;1.00;;;7.00;99.90;;;;;;4951340;28;20236;-64
2021/12/08 03:23:11;;;;;;;1.73;0.97;;;7.00;99.90;;;;;;4949341;28;20216;-65
2021/12/08 03:25:41;;;;;;;1.67;0.90;;;7.00;99.90;;;;;;4953751;29;20193;-65
2021/12/08 03:28:20;;;;;;;1.20;0.90;;;7.00;99.90;;;;;;4970477;28;20184;-66
2021/12/08 03:33:22;;;;;;;1.23;1.00;;;7.00;99.90;;;;;;4951254;29;20204;-65
2021/12/08 03:35:51;;;;;;;1.33;0.90;;;7.00;99.90;;;;;;4952750;29;20185;-65
2021/12/08 03:38:21;;;;;;;1.10;1.00;;;7.00;99.90;;;;;;4952032;28;20259;-65
2021/12/08 03:40:50;;;;;;;1.77;1.07;;;7.00;99.90;;;;;;4949203;29;20269;-66
2021/12/08 03:43:19;;;;;;;1.40;0.90;;;7.00;99.90;;;;;;4962426;28;20204;-65
2021/12/08 03:45:49;;;;;;;1.33;0.93;;;7.00;99.90;;;;;;4947684;28;20258;-65
2021/12/08 03:48:23;;;;;;;2.20;1.07;;;7.00;99.90;;;;;;4950312;28;20284;-65
2021/12/08 03:50:49;;;;;;;1.50;0.97;;;7.00;99.90;;;;;;4945227;28;20200;-65
2021/12/08 03:53:18;;;;;;;1.87;1.00;;;7.00;99.90;;;;;;4953154;29;20272;-65
2021/12/08 03:55:45;;;;;;;1.50;0.90;;;7.00;99.90;;;;;;4967715;28;20185;-65
2021/12/08 03:58:12;;;;;;;1.73;0.73;;;7.00;99.90;;;;;;4947744;29;20184;-65
2021/12/08 04:00:39;;;;;;;2.80;1.10;;;7.00;99.90;;;;;;4943455;28;20209;-65
2021/12/08 04:03:06;;;;;;;1.53;1.13;;;7.10;99.90;;;;;;4953779;28;20195;-65
2021/12/08 04:05:55;;;;;;;1.93;1.00;;;7.10;99.90;;;;;;4948964;29;20194;-65
2021/12/08 04:08:39;;;;;;;2.10;0.90;;;7.10;99.90;;;;;;4953383;28;20185;-65
2021/12/08 04:11:07;;;;;;;2.40;1.20;;;7.10;99.90;;;;;;4953275;28;20204;-65
2021/12/08 04:13:39;;;;;;;1.27;1.00;;;7.10;99.90;;;;;;4949249;28;20297;-65
2021/12/08 04:16:11;;;;;;;1.77;1.10;;;7.10;99.90;;;;;;4954795;28;20188;-65
2021/12/08 04:18:37;;;;;;;1.57;1.17;;;7.10;99.90;;;;;;4952875;28;20193;-65
2021/12/08 04:21:08;;;;;;;2.07;0.80;;;7.10;99.90;;;;;;4952878;28;20231;-65
2021/12/08 04:23:35;;;;;;;2.27;1.20;;;7.10;99.90;;;;;;4952185;28;20189;-65
2021/12/08 04:26:04;;;;;;;1.90;1.20;;;7.00;99.90;;;;;;4952904;29;20189;-65
2021/12/08 04:28:32;;;;;;;1.30;0.70;;;7.00;99.90;;;;;;4957893;28;20185;-65
2021/12/08 04:31:04;;;;;;;1.40;0.97;;;7.00;99.90;;;;;;4949370;29;20185;-65
2021/12/08 04:33:32;;;;;;;1.10;1.00;;;7.00;99.90;;;;;;4952842;29;20189;-67
2021/12/08 04:35:59;;;;;;;1.47;1.00;;;7.00;99.90;;;;;;4948809;29;20410;-65
2021/12/08 04:38:33;;;;;;;1.93;1.10;;;6.90;99.90;;;;;;4950254;29;20295;-65
2021/12/08 04:41:07;;;;;;;1.10;1.00;;;6.90;99.90;;;;;;4950285;28;20436;-64
2021/12/08 04:43:51;;;;;;;1.73;1.10;;;6.90;99.90;;;;;;4945598;29;20200;-65
2021/12/08 05:07:49;;;;;;;1.83;1.00;;;7.00;99.90;;;;;;4950355;29;20212;-65
2021/12/08 05:10:26;;;;;;;1.23;1.00;;;7.10;99.90;;;;;;4951690;29;20177;-65
2021/12/08 05:12:52;;;;;;;1.63;1.00;;;7.10;99.90;;;;;;4966906;28;20181;-65
2021/12/08 05:15:32;;;;;;;2.77;1.00;;;7.10;99.90;;;;;;4948851;29;20350;-65
2021/12/08 05:18:06;;;;;;;1.80;0.90;;;7.20;99.90;;;;;;4964723;28;20192;-65
2021/12/08 05:20:51;;;;;;;1.67;0.80;;;7.20;99.90;;;;;;4966063;28;20453;-65
2021/12/08 05:23:28;;;;;;;3.57;2.60;;;7.20;99.90;;;;;;4954508;28;20200;-65
2021/12/08 05:25:55;;;;;;;2.73;1.70;;;7.20;99.90;;;;;;4949822;28;20210;-65
2021/12/08 05:28:26;;;;;;;1.90;1.17;;;7.20;99.90;;;;;;4948637;29;20194;-65
2021/12/08 05:31:03;;;;;;;1.90;1.00;;;7.20;99.90;;;;;;4950944;29;20244;-65
2021/12/08 05:33:28;;;;;;;1.63;1.10;;;7.30;99.90;;;;;;4949186;28;20193;-65
2021/12/08 05:35:55;;;;;;;1.40;0.80;;;7.30;99.90;;;;;;4950138;28;20223;-65
2021/12/08 05:38:22;;;;;;;1.07;0.80;;;7.30;99.90;;;;;;4945253;29;20189;-65
2021/12/08 05:41:05;;;;;;;1.20;0.80;;;7.30;99.90;;;;;;4953918;28;20236;-65
2021/12/08 05:43:30;;;;;;;1.77;0.90;;;7.30;99.90;;;;;;4949445;29;20199;-65
2021/12/08 05:45:56;;;;;;;1.47;0.90;;;7.30;99.90;;;;;;4948169;29;20173;-66
2021/12/08 05:48:22;;;;;;;1.03;0.80;;;7.40;99.90;;;;;;4952681;29;20184;-65
2021/12/08 05:50:57;;;;;;;1.13;0.80;;;7.30;99.90;;;;;;4951629;29;20196;-65
2021/12/08 05:53:25;;;;;;;2.43;1.17;;;7.30;99.90;;;;;;4943487;29;20204;-65
2021/12/08 05:55:51;;;;;;;1.83;1.20;;;7.30;99.90;;;;;;4948799;29;20189;-65
2021/12/08 05:58:24;;;;;;;2.17;1.27;;;7.30;99.90;;;;;;4952118;28;20181;-65
2021/12/08 06:00:57;;;;;;;1.77;1.40;;;7.30;99.90;;;;;;4951245;28;20331;-65
2021/12/08 06:03:24;;;;;;;2.23;1.30;;;7.30;99.90;;;;;;4951279;28;20189;-65
2021/12/08 06:05:54;;;;;;;1.20;1.10;;;7.30;99.90;;;;;;4965470;28;20242;-65
2021/12/08 06:08:20;;;;;;;1.83;1.13;;;7.30;99.90;;;;;;4951861;28;20276;-65
2021/12/08 06:10:48;;;;;;;3.13;1.43;;;7.30;99.90;;;;;;4947578;28;20185;-65
2021/12/08 06:13:18;;;;;;;2.27;1.30;;;7.30;99.90;;;;;;4955454;28;20195;-65
2021/12/08 06:15:50;;;;;;;3.03;1.30;;;7.30;99.90;;;;;;4953470;28;20477;-65
2021/12/08 06:18:23;;;;;;;3.40;1.67;;;7.30;99.90;;;;;;4945943;29;20256;-65
2021/12/08 06:20:57;;;;;;;2.60;1.50;;;7.20;99.90;;;;;;4938890;29;20209;-64
2021/12/08 06:23:22;;;;;;;2.70;1.47;;;7.20;99.90;;;;;;4949187;29;20185;-67
2021/12/08 06:25:48;;;;;;;3.30;1.70;;;7.20;99.90;;;;;;4951347;28;20187;-65
2021/12/08 06:28:14;;;;;;;2.90;1.63;;;7.10;99.90;;;;;;4950647;29;20271;-65
2021/12/08 06:30:45;;;;;;;2.63;1.60;;;7.10;99.90;;;;;;4949313;29;20262;-65
2021/12/08 06:33:15;;;;;;;2.73;1.50;;;7.00;99.90;;;;;;4950309;28;20216;-65
2021/12/08 06:35:50;;;;;;;3.10;1.40;;;7.00;99.90;;;;;;4948354;29;20195;-66
2021/12/08 06:38:17;;;;;;;3.63;1.43;;;7.00;99.90;;;;;;4945434;29;20448;-66
2021/12/08 06:40:52;;;;;;;3.10;1.40;;;7.00;99.90;;;;;;4955942;28;20299;-66
2021/12/08 06:43:23;;;;;;;1.90;1.23;;;7.00;99.90;;;;;;4945422;29;20191;-65
2021/12/08 06:45:52;;;;;;;2.03;1.30;;;7.00;99.90;;;;;;4949449;29;20204;-66
2021/12/08 06:48:26;;;;;;;5.07;1.63;;;7.00;99.90;;;;;;4946123;29;20197;-66
2021/12/08 06:51:03;;;;;;;2.40;1.50;;;6.90;99.90;;;;;;4949033;29;20231;-65
2021/12/08 06:53:32;;;;;;;3.63;1.40;;;6.90;99.90;;;;;;4960038;28;20180;-66
2021/12/08 06:56:06;;;;;;;1.83;1.30;;;6.90;99.90;;;;;;4944857;28;20192;-66
2021/12/08 06:58:35;;;;;;;2.03;1.20;;;6.90;99.90;;;;;;4997961;28;20272;-66
2021/12/08 07:01:33;;;;;;;2.17;1.30;;;6.90;99.90;;;;;;4953186;28;20232;-66
2021/12/08 07:09:16;;;;;;;2.50;1.43;;;7.00;99.90;;;;;;4947622;29;20184;-66
2021/12/08 07:11:46;;;;;;;3.03;1.60;;;7.00;99.90;;;;;;4948106;29;20188;-65
2021/12/08 07:14:14;;;;;;;4.20;1.90;;;7.00;99.90;;;;;;4938908;29;20219;-65
2021/12/08 07:16:45;;;;;;;2.80;1.53;;;7.10;99.90;;;;;;4954245;28;20201;-66
2021/12/08 07:19:24;;;;;;;4.10;1.77;;;7.10;99.90;;;;;;4937557;29;20233;-66
2021/12/08 07:21:53;;;;;;;3.03;1.40;;;7.10;99.90;;;;;;4950705;29;20252;-65
2021/12/08 07:24:31;;;;;;;3.27;1.83;;;7.10;99.90;;;;;;4947753;28;20421;-66
2021/12/08 07:27:14;;;;;;;1.87;1.23;;;7.10;99.90;;;;;;4953371;28;20185;-65
2021/12/08 07:29:46;;;;;;;3.20;1.70;;;7.10;99.90;;;;;;4935600;29;20215;-66
2021/12/08 07:32:19;;;;;;;4.27;1.70;;;7.10;99.90;;;;;;4945212;29;20238;-66
2021/12/08 07:34:47;;;;;;;3.53;1.70;;;7.10;99.90;;;;;;4943998;28;20187;-65
2021/12/08 07:37:18;;;;;;;4.13;1.73;;;7.10;99.90;;;;;;5030052;28;20193;-65
2021/12/08 07:39:49;;;;;;;2.27;1.40;;;7.10;99.90;;;;;;4948958;29;20229;-66
2021/12/08 07:42:30;;;;;;;4.20;1.67;;;7.00;99.90;;;;;;4957948;28;20363;-66
2021/12/08 07:45:00;;;;;;;2.73;1.40;;;7.10;99.90;;;;;;4951660;28;20213;-66
2021/12/08 07:47:27;;;;;;;2.43;1.40;;;7.00;99.90;;;;;;4946740;29;20243;-65
2021/12/08 07:50:19;;;;;;;3.87;1.47;;;7.10;99.90;;;;;;4954663;28;20195;-66
2021/12/08 07:52:48;;;;;;;3.40;1.77;;;7.10;99.90;;;;;;4955222;28;20184;-66
2021/12/08 07:55:27;;;;;;;3.57;1.80;;;7.10;99.90;;;;;;4946922;29;20185;-66
2021/12/08 07:57:58;;;;;;;4.13;1.70;;;7.10;99.90;;;;;;4951674;28;20226;-66
2021/12/08 08:00:58;;;;;;;3.47;1.60;;;7.10;99.90;;;;;;4945030;29;20205;-65
2021/12/08 08:03:26;;;;;;;5.17;1.60;;;7.10;99.90;;;;;;4958608;28;20340;-66
2021/12/08 08:05:53;;;;;;;3.17;1.23;;;7.10;99.90;;;;;;4959198;28;20579;-66
2021/12/08 08:08:25;;;;;;;5.23;2.10;;;7.10;99.90;;;;;;4946509;29;20575;-65
2021/12/08 08:10:58;;;;;;;3.53;1.60;;;7.10;99.90;;;;;;4948226;29;20185;-66
2021/12/08 08:13:28;;;;;;;3.20;1.50;;;7.20;99.90;;;;;;4953697;28;20199;-65
2021/12/08 08:16:05;;;;;;;3.63;1.33;;;7.20;99.90;;;;;;4943301;29;20197;-66
2021/12/08 08:18:40;;;;;;;2.50;1.20;;;7.20;99.90;;;;;;4964034;28;20192;-66
2021/12/08 08:21:12;;;;;;;3.33;1.37;;;7.30;99.90;;;;;;4952229;29;20291;-66
2021/12/08 08:23:40;;;;;;;2.33;1.30;;;7.30;99.90;;;;;;4960831;28;20173;-66
2021/12/08 08:26:09;;;;;;;2.03;1.30;;;7.30;99.90;;;;;;4952947;29;20185;-65
2021/12/08 08:28:36;;;;;;;3.13;1.27;;;7.40;99.90;;;;;;4953257;29;20177;-66
2021/12/08 08:31:07;;;;;;;2.73;1.30;;;7.40;99.90;;;;;;4956597;28;20204;-65
2021/12/08 08:33:37;;;;;;;2.73;1.20;;;7.40;99.90;;;;;;4960450;28;20208;-65
2021/12/08 08:36:10;;;;;;;6.00;2.87;;;7.40;99.90;;;;;;4955452;28;20196;-66
2021/12/08 08:39:08;;;;;;;3.83;1.90;;;7.40;99.90;;;;;;4951328;29;20213;-66
2021/12/08 08:41:42;;;;;;;3.93;1.53;;;7.50;99.90;;;;;;4961504;28;20265;-66
2021/12/08 08:44:16;;;;;;;2.20;1.40;;;7.50;99.90;;;;;;4968130;28;20514;-65
2021/12/08 08:46:45;;;;;;;1.73;1.17;;;7.50;99.90;;;;;;4951073;28;20248;-66
2021/12/08 08:49:17;;;;;;;2.67;1.27;;;7.50;99.90;;;;;;4951482;28;20189;-66
2021/12/08 08:51:46;;;;;;;2.80;1.30;;;7.60;99.90;;;;;;5010864;28;20295;-66
2021/12/08 08:54:20;;;;;;;2.37;1.23;;;7.60;99.90;;;;;;4948928;29;20207;-66
2021/12/08 08:56:53;;;;;;;2.40;1.07;;;7.60;99.90;;;;;;4952734;29;20232;-66
2021/12/08 08:59:30;;;;;;;2.43;1.20;;;7.60;99.90;;;;;;4952882;29;20447;-66
2021/12/08 09:02:02;;;;;;;2.33;1.40;;;7.70;99.90;;;;;;4951307;28;20189;-67
2021/12/08 09:04:37;;;;;;;5.93;1.43;;;7.70;99.90;;;;;;4946426;29;20216;-66
2021/12/08 09:07:06;;;;;;;3.90;1.30;;;7.70;99.90;;;;;;4951738;28;20200;-66
2021/12/08 09:09:39;;;;;;;2.57;1.47;;;7.70;99.90;;;;;;4948058;29;20185;-66
2021/12/08 09:12:14;;;;;;;3.83;1.30;;;7.80;99.90;;;;;;4946631;29;20181;-66
2021/12/08 09:14:58;;;;;;;1.90;1.30;;;7.80;99.90;;;;;;4947774;29;20185;-66
2021/12/08 09:17:37;;;;;;;2.93;1.20;;;7.80;99.90;;;;;;4976458;28;20184;-66
2021/12/08 09:20:03;;;;;;;3.27;1.47;;;7.80;99.90;;;;;;4953424;28;20236;-66
2021/12/08 09:22:41;;;;;;;1.97;1.17;;;7.80;99.90;;;;;;4952469;29;20248;-66
2021/12/08 09:25:18;;;;;;;1.67;1.13;;;7.90;99.90;;;;;;4952629;29;20191;-65
2021/12/08 09:27:48;;;;;;;4.07;1.17;;;7.90;99.90;;;;;;4941570;29;20243;-66
2021/12/08 09:30:55;;;;;;;1.83;1.07;;;7.90;99.90;;;;;;4958214;28;20192;-66
2021/12/08 09:33:26;;;;;;;3.23;1.30;;;8.00;99.90;;;;;;4945855;28;20188;-66
2021/12/08 09:35:57;;;;;;;3.33;1.30;;;8.00;99.90;;;;;;4972662;28;20204;-66
2021/12/08 09:38:57;;;;;;;3.73;1.40;;;8.00;99.90;;;;;;4951202;28;20250;-65
2021/12/08 09:41:30;;;;;;;3.33;1.20;;;8.10;99.90;;;;;;4962478;28;20212;-66
2021/12/08 09:44:04;;;;;;;4.60;1.30;;;8.10;99.90;;;;;;4947715;28;20220;-66
2021/12/08 09:46:41;;;;;;;6.20;1.27;;;8.10;99.90;;;;;;4940290;29;20202;-66
2021/12/08 09:49:08;;;;;;;2.87;1.10;;;8.10;99.90;;;;;;4946776;29;20188;-66
2021/12/08 09:51:35;;;;;;;4.60;1.23;;;8.10;99.90;;;;;;4947454;29;20198;-67
2021/12/08 09:54:03;;;;;;;2.73;1.30;;;8.20;99.90;;;;;;4952104;29;20191;-65
2021/12/08 09:56:30;;;;;;;2.50;1.20;;;8.20;99.90;;;;;;4946452;28;20193;-66
2021/12/08 09:58:58;;;;;;;1.97;0.90;;;8.20;99.90;;;;;;4944381;28;20212;-66
2021/12/08 10:01:24;;;;;;;2.27;1.17;;;8.30;99.90;;;;;;4951426;29;20184;-66
2021/12/08 10:03:55;;;;;;;1.63;1.00;;;8.30;99.90;;;;;;4983047;28;20213;-66
2021/12/08 10:06:24;;;;;;;3.07;1.20;;;8.30;99.90;;;;;;4961823;28;20200;-66
2021/12/08 10:08:50;;;;;;;2.43;1.10;;;8.30;99.90;;;;;;4955799;28;20260;-66
2021/12/08 10:11:20;;;;;;;3.30;1.30;;;8.30;99.90;;;;;;4955639;28;20204;-66
2021/12/08 10:13:46;;;;;;;2.73;1.03;;;8.40;99.90;;;;;;4953624;28;20190;-67
2021/12/08 10:16:19;;;;;;;3.90;1.10;;;8.40;99.90;;;;;;4950898;29;20271;-66
2021/12/08 10:18:45;;;;;;;2.57;1.00;;;8.40;99.90;;;;;;4945780;29;20181;-66
2021/12/08 10:21:14;;;;;;;2.43;1.07;;;8.40;99.90;;;;;;4938458;29;20472;-66
2021/12/08 10:23:42;;;;;;;4.10;1.40;;;8.40;99.90;;;;;;4947555;29;20181;-66
2021/12/08 10:26:13;;;;;;;2.90;1.50;;;8.50;99.90;;;;;;4951734;29;20267;-65
2021/12/08 10:28:45;;;;;;;3.40;1.10;;;8.50;99.90;;;;;;4949084;29;20173;-66
2021/12/08 10:31:26;;;;;;;4.03;1.10;;;8.50;99.90;;;;;;4969744;28;20351;-70
2021/12/08 10:36:58;;;;;;;3.63;1.10;;;8.50;99.90;;;;;;4946766;28;20198;-73
2021/12/08 10:39:24;;;;;;;3.40;1.07;;;8.60;99.90;;;;;;5049531;28;20204;-73
2021/12/08 10:41:55;;;;;;;3.70;1.03;;;8.60;99.90;;;;;;4982032;28;20197;-73
2021/12/08 10:44:27;;;;;;;4.57;1.43;;;8.60;99.90;;;;;;4963770;28;20228;-74
2021/12/08 10:46:58;;;;;;;3.67;1.00;;;8.60;99.90;;;;;;4940408;29;20237;-73
2021/12/08 10:54:25;;;;;;;3.67;1.27;;;8.60;99.90;;;;;;4950092;29;20288;-73
2021/12/08 10:55:00;;;;;;;2.83;1.10;;;8.70;99.90;;;;;;4957701;28;20192;-73
2021/12/08 10:57:31;;;;;;;2.53;0.90;;;8.70;99.90;;;;;;4938166;29;20284;-74
2021/12/08 11:00:12;;;;;;;2.47;1.00;;;8.80;99.90;;;;;;4950520;29;20200;-74
2021/12/08 11:02:37;;;;;;;2.50;0.93;;;8.80;99.90;;;;;;4946676;29;20204;-73
2021/12/08 11:05:27;;;;;;;3.63;1.40;;;8.80;99.90;;;;;;4948615;28;20185;-74
2021/12/08 11:08:19;;;;;;;3.70;1.10;;;8.90;99.90;;;;;;4952375;28;20177;-74
2021/12/08 11:11:07;;;;;;;3.87;1.20;;;8.90;99.90;;;;;;4948743;28;20188;-72
2021/12/08 11:13:34;;;;;;;3.10;1.30;;;8.90;99.90;;;;;;4946436;29;20311;-74
2021/12/08 11:16:08;;;;;;;2.70;1.10;;;8.90;99.90;;;;;;4951565;28;20184;-72
2021/12/08 11:18:39;;;;;;;4.30;1.43;;;9.00;99.90;;;;;;4973767;28;20208;-74
2021/12/08 11:21:14;;;;;;;2.70;1.20;;;9.00;99.90;;;;;;4950942;28;20543;-74
2021/12/08 11:23:45;;;;;;;2.47;0.93;;;9.00;99.90;;;;;;4945737;28;20192;-73
2021/12/08 11:26:19;;;;;;;4.63;1.00;;;9.00;99.90;;;;;;4948800;28;20253;-73
2021/12/08 11:29:07;;;;;;;1.90;0.80;;;9.10;99.90;;;;;;4943828;29;20220;-72
2021/12/08 11:31:34;;;;;;;3.93;1.10;;;9.10;99.90;;;;;;4942947;29;20261;-73
2021/12/08 11:34:05;;;;;;;3.27;1.00;;;9.20;99.90;;;;;;4950295;28;20192;-72
2021/12/08 11:36:38;;;;;;;3.47;1.20;;;9.20;99.90;;;;;;4951049;29;20177;-71
2021/12/08 11:39:14;;;;;;;4.40;1.20;;;9.20;99.90;;;;;;4968440;28;20208;-72
2021/12/08 11:41:47;;;;;;;5.70;1.20;;;9.30;99.90;;;;;;4960018;28;20507;-71
2021/12/08 11:44:16;;;;;;;4.00;1.50;;;9.30;99.90;;;;;;4950975;29;20193;-73
2021/12/08 11:46:58;;;;;;;1.70;1.00;;;9.30;99.90;;;;;;4947204;28;20205;-73
2021/12/08 11:49:25;;;;;;;2.97;1.10;;;9.40;99.90;;;;;;4966179;28;20264;-73
2021/12/08 11:52:18;;;;;;;4.03;1.30;;;9.40;99.90;;;;;;4950612;29;20283;-73
2021/12/08 11:54:51;;;;;;;3.50;1.30;;;9.40;99.90;;;;;;4953395;29;20193;-72
2021/12/08 11:57:24;;;;;;;7.47;1.47;;;9.50;99.90;;;;;;4948087;29;20457;-70
2021/12/08 12:00:14;;;;;;;2.20;1.37;;;9.50;99.90;;;;;;4955616;28;20200;-74
2021/12/08 12:02:56;;;;;;;3.03;1.00;;;9.50;99.90;;;;;;4953165;28;20444;-73
2021/12/08 12:05:29;;;;;;;3.20;1.00;;;9.50;99.90;;;;;;4965219;28;20185;-73
2021/12/08 12:07:55;;;;;;;2.97;1.30;;;9.50;99.90;;;;;;4946703;28;20188;-73
2021/12/08 12:10:31;;;;;;;2.47;1.20;;;9.50;99.90;;;;;;4951722;29;20213;-73
2021/12/08 12:12:58;;;;;;;3.60;1.23;;;9.50;99.90;;;;;;4947642;29;20274;-72
2021/12/08 12:15:25;;;;;;;4.17;1.27;;;9.50;99.90;;;;;;4955613;28;20246;-72
2021/12/08 12:17:51;;;;;;;2.33;1.00;;;9.50;99.90;;;;;;4953523;29;20196;-71
2021/12/08 12:20:18;;;;;;;3.20;1.10;;;9.50;99.90;;;;;;4952749;29;20367;-74
2021/12/08 12:23:15;;;;;;;4.53;1.20;;;9.50;99.90;;;;;;4951306;29;20382;-73
2021/12/08 12:26:09;;;;;;;1.90;0.90;;;9.50;99.90;;;;;;4966559;28;20426;-72
2021/12/08 12:28:42;;;;;;;3.17;1.10;;;9.60;99.90;;;;;;4966426;28;20197;-72
2021/12/08 12:31:22;;;;;;;3.73;1.20;;;9.60;99.90;;;;;;4941565;29;20185;-73
2021/12/08 12:33:49;;;;;;;2.53;1.33;;;9.60;99.90;;;;;;4947270;29;20189;-72
2021/12/08 12:36:23;;;;;;;3.17;1.10;;;9.60;99.90;;;;;;4948246;29;20299;-72
2021/12/08 12:38:54;;;;;;;4.03;1.33;;;9.70;99.90;;;;;;5001207;28;20275;-74
2021/12/08 12:41:31;;;;;;;4.97;1.50;;;9.70;99.90;;;;;;4950683;29;20232;-73
2021/12/08 12:44:18;;;;;;;3.23;1.10;;;9.70;99.90;;;;;;4951612;29;20196;-74
2021/12/08 12:47:08;;;;;;;;;;;;;;;;;;;;;
2021/12/08 12:49:33;;;;;;;5.53;1.60;;;9.80;99.90;;;;;;4952163;29;20236;-73
2021/12/08 12:52:05;;;;;;;5.90;1.40;;;9.80;99.90;;;;;;4951377;29;20205;-73
2021/12/08 12:54:32;;;;;;;2.85;1.67;;;9.80;99.90;;;;;;4951660;29;20243;-73
2021/12/08 12:56:58;;;;;;;3.45;1.30;;;9.80;99.90;;;;;;4967364;28;20185;-73
2021/12/08 12:59:36;;;;;;;3.00;1.10;;;9.90;99.90;;;;;;4950684;28;20315;-73
2021/12/08 13:02:22;;;;;;;3.10;1.20;;;9.80;99.90;;;;;;4952893;28;20191;-74
2021/12/08 13:04:55;;;;;;;3.13;1.10;;;9.80;99.90;;;;;;4949052;29;20267;-72
2021/12/08 13:07:23;;;;;;;4.03;1.10;;;9.80;99.90;;;;;;4943216;29;20207;-74
2021/12/08 13:09:57;;;;;;;4.33;1.30;;;9.80;99.90;;;;;;4952153;29;20181;-73
2021/12/08 13:12:28;;;;;;;5.43;1.47;;;9.80;99.90;;;;;;4944817;29;20197;-72
2021/12/08 13:15:13;;;;;;;4.93;1.40;;;9.80;99.90;;;;;;4966941;28;20192;-73
2021/12/08 13:18:02;;;;;;;4.30;1.10;;;9.80;99.90;;;;;;4952633;29;20180;-73
2021/12/08 13:20:36;;;;;;;3.60;1.10;;;9.80;99.90;;;;;;4951212;28;20264;-73
2021/12/08 13:23:06;;;;;;;3.70;1.10;;;9.80;99.90;;;;;;4949476;29;20211;-72
2021/12/08 13:26:18;;;;;;;2.70;1.00;;;9.70;99.90;;;;;;4949439;29;20188;-72
2021/12/08 13:28:37;;;;;;;3.43;1.00;;;9.70;99.90;;;;;;4954748;28;20272;-73
2021/12/08 13:31:26;;;;;;;3.97;1.00;;;9.70;99.90;;;;;;4947799;28;20200;-72
2021/12/08 13:33:57;;;;;;;2.43;0.77;;;9.70;99.90;;;;;;4951199;29;20195;-73
2021/12/08 13:36:31;;;;;;;3.60;1.30;;;9.60;99.90;;;;;;4959281;28;20295;-72
2021/12/08 13:38:56;;;;;;;1.53;0.90;;;9.60;99.90;;;;;;4950010;28;20226;-73
2021/12/08 13:41:22;;;;;;;4.00;1.03;;;9.60;99.90;;;;;;4951832;28;20213;-74
2021/12/08 13:43:51;;;;;;;2.97;1.00;;;9.60;99.90;;;;;;4944473;29;20201;-73
2021/12/08 13:46:38;;;;;;;2.00;0.93;;;9.60;99.90;;;;;;4960105;28;20189;-76
2021/12/08 13:49:20;;;;;;;3.10;1.20;;;9.60;99.90;;;;;;4941370;29;20185;-71
2021/12/08 13:52:09;;;;;;;4.40;1.40;;;9.60;99.90;;;;;;4951391;28;20314;-73
2021/12/08 13:54:36;;;;;;;2.93;1.10;;;9.60;99.90;;;;;;4946118;28;20193;-74
2021/12/08 13:57:23;;;;;;;3.73;1.20;;;9.60;99.90;;;;;;4948301;28;20181;-74
2021/12/08 14:00:17;;;;;;;3.37;1.20;;;9.50;99.90;;;;;;4942237;28;20209;-74
2021/12/08 14:03:01;;;;;;;6.13;1.40;;;9.50;99.90;;;;;;4949170;29;20272;-72
2021/12/08 14:05:31;;;;;;;3.10;1.00;;;9.50;99.90;;;;;;4968896;28;20215;-74
2021/12/08 14:08:07;;;;;;;1.37;0.80;;;9.50;99.90;;;;;;4946167;29;20173;-75
2021/12/08 14:10:47;;;;;;;4.10;1.10;;;9.50;99.90;;;;;;4947931;28;20196;-74
2021/12/08 14:13:23;;;;;;;3.33;1.33;;;9.50;99.90;;;;;;4946991;29;20456;-74
2021/12/08 14:16:01;;;;;;;2.60;1.00;;;9.50;99.90;;;;;;4951664;29;20172;-73
2021/12/08 14:18:38;;;;;;;1.97;1.00;;;9.50;99.90;;;;;;4949346;29;20304;-75
2021/12/08 14:21:16;;;;;;;2.83;1.00;;;9.50;99.90;;;;;;4944353;29;20204;-75